createdAt,value
2017-08-31T00:02:26.388Z,14.33
2017-08-31T00:04:54.809Z,15.80
2017-08-31T00:07:23.178Z,12.47
2017-08-31T00:09:51.516Z,13.57
2017-08-31T00:12:19.870Z,12.97
2017-08-31T00:14:48.465Z,12.07
2017-08-31T00:17:17.456Z,11.20
2017-08-31T00:19:45.905Z,10.63
2017-08-31T00:22:14.561Z,10.53
2017-08-31T00:24:43.063Z,10.60
2017-08-31T00:27:11.530Z,9.73
2017-08-31T00:29:40.014Z,9.73
2017-08-31T00:32:08.360Z,10.17
2017-08-31T00:34:36.820Z,10.10
2017-08-31T00:37:05.165Z,10.07
2017-08-31T00:39:33.789Z,9.70
2017-08-31T00:42:02.191Z,10.83
2017-08-31T00:44:30.603Z,9.97
2017-08-31T00:46:59.009Z,11.23
2017-08-31T00:49:27.365Z,11.90
2017-08-31T00:51:56.807Z,10.70
2017-08-31T00:54:25.155Z,9.70
2017-08-31T00:56:53.459Z,10.00
2017-08-31T00:59:21.814Z,10.93
2017-08-31T01:01:50.149Z,9.57
2017-08-31T01:04:18.678Z,9.23
2017-08-31T01:06:47.097Z,9.80
2017-08-31T01:09:15.796Z,10.57
2017-08-31T01:11:44.271Z,10.10
2017-08-31T01:14:12.935Z,8.80
2017-08-31T01:16:41.881Z,8.20
2017-08-31T01:19:10.320Z,8.13
2017-08-31T01:21:38.637Z,8.33
2017-08-31T01:24:07.182Z,8.67
2017-08-31T01:26:35.617Z,9.43
2017-08-31T01:29:03.953Z,8.97
2017-08-31T01:31:32.437Z,8.17
2017-08-31T01:34:01.171Z,8.07
2017-08-31T01:36:29.613Z,8.70
2017-08-31T01:41:32.958Z,8.40
2017-08-31T01:44:01.407Z,8.87
2017-08-31T01:46:29.817Z,9.03
2017-08-31T01:48:58.435Z,8.30
2017-08-31T01:51:27.016Z,8.57
2017-08-31T01:53:55.632Z,8.73
2017-08-31T01:56:23.961Z,9.90
2017-08-31T01:58:52.431Z,8.33
2017-08-31T02:01:20.764Z,8.43
2017-08-31T02:03:49.320Z,9.13
2017-08-31T02:06:17.664Z,9.37
2017-08-31T02:08:45.976Z,8.80
2017-08-31T02:11:14.520Z,9.97
2017-08-31T02:13:42.843Z,9.37
2017-08-31T02:16:11.416Z,8.70
2017-08-31T02:18:40.193Z,9.67
2017-08-31T02:21:08.502Z,8.43
2017-08-31T02:23:36.951Z,8.80
2017-08-31T02:26:05.353Z,8.80
2017-08-31T02:28:33.675Z,9.23
2017-08-31T02:31:02.576Z,8.87
2017-08-31T02:33:30.881Z,9.07
2017-08-31T02:35:59.368Z,10.30
2017-08-31T02:38:27.764Z,10.50
2017-08-31T02:40:56.075Z,8.73
2017-08-31T02:43:24.502Z,9.70
2017-08-31T02:45:52.897Z,9.73
2017-08-31T02:48:21.215Z,9.60
2017-08-31T02:50:49.524Z,7.67
2017-08-31T02:53:17.924Z,9.93
2017-08-31T02:55:46.343Z,10.37
2017-08-31T02:58:15.157Z,9.80
2017-08-31T03:00:43.791Z,10.00
2017-08-31T03:03:12.128Z,10.10
2017-08-31T03:05:40.481Z,9.90
2017-08-31T03:08:08.933Z,9.50
2017-08-31T03:10:37.371Z,9.60
2017-08-31T03:13:06.060Z,8.90
2017-08-31T03:15:34.498Z,10.80
2017-08-31T03:18:02.816Z,9.70
2017-08-31T03:20:31.896Z,10.10
2017-08-31T03:23:00.200Z,10.40
2017-08-31T03:25:28.520Z,9.40
2017-08-31T03:27:56.924Z,10.03
2017-08-31T03:30:25.348Z,10.13
2017-08-31T03:32:53.775Z,10.10
2017-08-31T03:35:22.411Z,10.20
2017-08-31T03:37:50.777Z,9.90
2017-08-31T03:40:19.328Z,9.40
2017-08-31T03:42:47.792Z,11.07
2017-08-31T03:45:16.169Z,10.63
2017-08-31T03:47:44.527Z,9.57
2017-08-31T03:50:13.457Z,11.40
2017-08-31T03:52:41.879Z,10.03
2017-08-31T03:55:10.215Z,12.10
2017-08-31T03:57:38.617Z,9.50
2017-08-31T04:00:07.004Z,9.63
2017-08-31T04:02:35.390Z,8.20
2017-08-31T04:05:03.730Z,10.57
2017-08-31T04:07:32.324Z,9.67
2017-08-31T04:10:00.772Z,11.33
2017-08-31T04:12:29.305Z,9.50
2017-08-31T04:14:57.622Z,9.17
2017-08-31T04:17:26.947Z,10.80
2017-08-31T04:19:55.528Z,10.00
2017-08-31T04:22:24.416Z,9.40
2017-08-31T04:24:53.120Z,10.07
2017-08-31T04:27:21.451Z,10.47
2017-08-31T04:29:49.780Z,9.50
2017-08-31T04:32:18.412Z,9.90
2017-08-31T04:34:46.927Z,11.23
2017-08-31T04:37:15.449Z,10.13
2017-08-31T04:39:43.892Z,11.20
2017-08-31T04:42:12.649Z,11.47
2017-08-31T04:44:41.447Z,10.93
2017-08-31T04:47:09.772Z,10.60
2017-08-31T04:49:38.368Z,10.13
2017-08-31T04:52:06.756Z,11.20
2017-08-31T04:54:35.217Z,11.10
2017-08-31T04:57:03.543Z,10.73
2017-08-31T04:59:31.945Z,10.93
2017-08-31T05:02:00.578Z,10.40
2017-08-31T05:04:28.891Z,11.07
2017-08-31T05:06:57.521Z,10.60
2017-08-31T05:09:25.895Z,10.70
2017-08-31T05:11:54.613Z,10.70
2017-08-31T05:14:23.108Z,11.50
2017-08-31T05:16:51.618Z,11.77
2017-08-31T05:19:20.462Z,13.90
2017-08-31T05:21:49.065Z,12.07
2017-08-31T05:24:17.415Z,13.77
2017-08-31T05:26:45.893Z,13.50
2017-08-31T05:29:14.480Z,12.73
2017-08-31T05:31:42.877Z,11.43
2017-08-31T05:34:11.332Z,13.60
2017-08-31T05:36:39.696Z,14.20
2017-08-31T05:39:08.277Z,13.03
2017-08-31T05:41:36.626Z,13.10
2017-08-31T05:44:04.999Z,12.10
2017-08-31T05:46:33.427Z,12.97
2017-08-31T05:49:01.862Z,13.30
2017-08-31T05:51:30.216Z,11.27
2017-08-31T05:53:58.807Z,11.10
2017-08-31T05:56:28.361Z,11.43
2017-08-31T05:58:56.910Z,11.83
2017-08-31T06:01:25.286Z,10.87
2017-08-31T06:03:53.609Z,10.10
2017-08-31T06:06:22.479Z,9.27
2017-08-31T06:08:50.839Z,9.50
2017-08-31T06:11:19.414Z,10.60
2017-08-31T06:13:47.929Z,10.93
2017-08-31T06:16:16.285Z,11.80
2017-08-31T06:18:44.626Z,11.40
2017-08-31T06:21:13.004Z,10.27
2017-08-31T06:23:41.396Z,10.00
2017-08-31T06:26:09.784Z,10.30
2017-08-31T06:28:38.104Z,9.47
2017-08-31T06:31:07.636Z,10.07
2017-08-31T06:33:36.176Z,9.00
2017-08-31T06:36:04.464Z,8.60
2017-08-31T06:38:33.040Z,8.87
2017-08-31T06:41:01.646Z,7.90
2017-08-31T06:43:30.156Z,9.97
2017-08-31T06:45:58.606Z,8.10
2017-08-31T06:48:27.080Z,9.10
2017-08-31T06:50:55.775Z,8.60
2017-08-31T06:53:24.379Z,8.80
2017-08-31T06:55:52.865Z,8.23
2017-08-31T06:58:21.494Z,8.53
2017-08-31T07:00:49.972Z,7.77
2017-08-31T07:03:18.684Z,11.87
2017-08-31T07:05:46.998Z,8.43
2017-08-31T07:08:15.325Z,6.53
2017-08-31T07:10:44.065Z,6.57
2017-08-31T07:13:12.610Z,7.43
2017-08-31T07:15:42.085Z,9.00
2017-08-31T07:18:10.720Z,6.47
2017-08-31T07:20:39.571Z,5.30
2017-08-31T07:23:08.276Z,6.90
2017-08-31T07:25:36.878Z,5.50
2017-08-31T07:28:05.296Z,5.50
2017-08-31T07:30:33.617Z,6.37
2017-08-31T07:33:02.350Z,7.17
2017-08-31T07:35:31.090Z,11.93
2017-08-31T07:37:59.603Z,10.63
2017-08-31T07:40:29.038Z,7.07
2017-08-31T07:42:57.987Z,5.43
2017-08-31T07:45:26.360Z,4.77
2017-08-31T07:47:54.803Z,4.40
2017-08-31T07:50:23.374Z,4.90
2017-08-31T07:52:52.469Z,5.20
2017-08-31T07:55:21.467Z,4.60
2017-08-31T07:57:50.092Z,5.80
2017-08-31T08:00:18.666Z,13.93
2017-08-31T08:02:47.141Z,7.93
2017-08-31T08:05:15.801Z,7.60
2017-08-31T08:07:44.704Z,10.60
2017-08-31T08:10:13.523Z,5.70
2017-08-31T08:12:42.187Z,4.63
2017-08-31T08:15:10.626Z,4.33
2017-08-31T08:17:39.157Z,4.10
2017-08-31T08:20:07.732Z,4.77
2017-08-31T08:22:36.108Z,5.97
2017-08-31T08:25:05.704Z,4.83
2017-08-31T08:27:34.465Z,4.30
2017-08-31T08:30:05.833Z,4.20
2017-08-31T08:32:34.127Z,4.47
2017-08-31T08:35:02.735Z,4.43
2017-08-31T08:37:31.127Z,4.93
2017-08-31T08:39:59.554Z,5.27
2017-08-31T08:42:27.876Z,5.40
2017-08-31T08:44:57.385Z,9.17
2017-08-31T08:47:25.906Z,5.37
2017-08-31T08:49:54.453Z,10.70
2017-08-31T08:52:22.995Z,5.30
2017-08-31T08:54:51.358Z,6.60
2017-08-31T08:57:19.971Z,14.33
2017-08-31T08:59:48.290Z,14.60
2017-08-31T09:02:16.751Z,16.17
2017-08-31T09:04:45.110Z,8.17
2017-08-31T09:07:13.460Z,6.10
2017-08-31T09:09:41.978Z,7.80
2017-08-31T09:12:10.367Z,8.70
2017-08-31T09:14:38.733Z,9.23
2017-08-31T09:17:07.065Z,5.43
2017-08-31T09:19:35.642Z,5.00
2017-08-31T09:22:03.956Z,7.87
2017-08-31T09:24:32.255Z,4.20
2017-08-31T09:27:00.680Z,7.70
2017-08-31T09:29:29.008Z,9.37
2017-08-31T09:31:57.389Z,6.97
2017-08-31T09:34:25.936Z,6.47
2017-08-31T09:36:54.398Z,9.50
2017-08-31T09:39:22.983Z,10.63
2017-08-31T09:41:51.411Z,6.50
2017-08-31T09:44:20.196Z,12.23
2017-08-31T09:46:48.567Z,4.63
2017-08-31T09:49:17.539Z,10.33
2017-08-31T09:51:46.068Z,7.23
2017-08-31T09:54:14.675Z,5.83
2017-08-31T09:56:43.348Z,4.80
2017-08-31T09:59:11.773Z,4.40
2017-08-31T10:01:40.100Z,4.40
2017-08-31T10:04:08.524Z,4.57
2017-08-31T10:06:37.515Z,4.30
2017-08-31T10:09:05.985Z,4.40
2017-08-31T10:11:34.299Z,6.10
2017-08-31T10:14:02.812Z,4.77
2017-08-31T10:16:31.624Z,4.93
2017-08-31T10:19:00.088Z,5.03
2017-08-31T10:21:28.568Z,5.20
2017-08-31T10:23:56.953Z,5.27
2017-08-31T10:26:25.350Z,4.57
2017-08-31T10:28:53.725Z,5.20
2017-08-31T10:31:22.374Z,5.30
2017-08-31T10:33:50.785Z,5.97
2017-08-31T10:36:19.185Z,4.27
2017-08-31T10:38:47.612Z,4.87
2017-08-31T10:41:16.040Z,7.10
2017-08-31T10:43:44.388Z,6.87
2017-08-31T10:46:13.028Z,7.10
2017-08-31T10:48:41.800Z,8.37
2017-08-31T10:51:10.399Z,7.83
2017-08-31T10:53:39.049Z,11.97
2017-08-31T10:56:07.879Z,7.67
2017-08-31T10:58:36.185Z,6.03
2017-08-31T11:01:04.500Z,6.17
2017-08-31T11:03:33.108Z,5.50
2017-08-31T11:06:01.692Z,20.13
2017-08-31T11:08:30.029Z,5.20
2017-08-31T11:10:58.560Z,5.57
2017-08-31T11:13:26.954Z,6.03
2017-08-31T11:15:55.246Z,8.50
2017-08-31T11:18:23.784Z,4.67
2017-08-31T11:20:52.089Z,3.90
2017-08-31T11:23:20.526Z,3.03
2017-08-31T11:25:49.075Z,4.13
2017-08-31T11:28:17.591Z,8.80
2017-08-31T11:30:45.889Z,6.10
2017-08-31T11:33:14.427Z,2.50
2017-08-31T11:35:42.936Z,5.40
2017-08-31T11:38:12.606Z,7.27
2017-08-31T11:40:40.933Z,4.50
2017-08-31T11:43:09.432Z,4.00
2017-08-31T11:45:37.786Z,4.43
2017-08-31T11:48:06.220Z,3.80
2017-08-31T11:50:34.593Z,3.57
2017-08-31T11:53:03.025Z,3.77
2017-08-31T11:55:31.422Z,3.00
2017-08-31T11:57:59.866Z,6.40
2017-08-31T12:00:28.209Z,15.83
2017-08-31T12:02:56.897Z,14.50
2017-08-31T12:05:25.205Z,5.73
2017-08-31T12:07:53.659Z,10.40
2017-08-31T12:10:22.072Z,7.93
2017-08-31T12:12:50.466Z,10.10
2017-08-31T12:15:18.768Z,5.13
2017-08-31T12:17:47.508Z,13.70
2017-08-31T12:20:15.863Z,8.63
2017-08-31T12:22:44.436Z,6.00
2017-08-31T12:25:12.813Z,11.07
2017-08-31T12:27:41.140Z,6.43
2017-08-31T12:30:09.702Z,6.10
2017-08-31T12:32:38.076Z,3.47
2017-08-31T12:35:06.389Z,3.70
2017-08-31T12:37:34.716Z,2.63
2017-08-31T12:40:04.241Z,2.90
2017-08-31T12:42:32.720Z,2.80
2017-08-31T12:45:01.036Z,2.77
2017-08-31T12:47:29.681Z,2.33
2017-08-31T12:49:58.038Z,3.60
2017-08-31T12:52:26.358Z,18.80
2017-08-31T12:54:54.753Z,7.27
2017-08-31T12:57:23.077Z,3.23
2017-08-31T12:59:51.437Z,2.87
2017-08-31T13:02:19.880Z,2.30
2017-08-31T13:04:48.745Z,2.80
2017-08-31T13:07:17.072Z,2.73
2017-08-31T13:09:45.565Z,2.00
2017-08-31T13:12:14.232Z,1.40
2017-08-31T13:14:42.737Z,2.13
2017-08-31T13:17:11.193Z,1.87
2017-08-31T13:19:39.808Z,1.67
2017-08-31T13:22:08.246Z,1.80
2017-08-31T13:24:36.552Z,1.83
2017-08-31T13:27:07.518Z,2.23
2017-08-31T13:29:45.056Z,2.33
2017-08-31T13:32:19.563Z,5.20
2017-08-31T13:34:47.912Z,6.30
2017-08-31T13:37:16.325Z,2.30
2017-08-31T13:39:44.797Z,2.80
2017-08-31T13:42:13.116Z,1.60
2017-08-31T13:44:41.785Z,1.80
2017-08-31T13:47:10.502Z,1.83
2017-08-31T13:49:38.937Z,2.20
2017-08-31T13:52:07.517Z,10.00
2017-08-31T13:54:35.927Z,2.97
2017-08-31T13:57:04.281Z,3.83
2017-08-31T13:59:32.583Z,3.90
2017-08-31T14:02:01.153Z,4.60
2017-08-31T14:04:29.748Z,3.77
2017-08-31T14:06:58.221Z,3.10
2017-08-31T14:09:26.700Z,4.13
2017-08-31T14:11:55.165Z,4.37
2017-08-31T14:14:23.477Z,6.60
2017-08-31T14:16:52.070Z,8.23
2017-08-31T14:19:20.521Z,6.27
2017-08-31T14:21:49.100Z,11.00
2017-08-31T14:24:17.428Z,4.60
2017-08-31T14:26:45.791Z,5.60
2017-08-31T14:29:14.333Z,4.90
2017-08-31T14:31:42.645Z,4.23
2017-08-31T14:34:11.228Z,5.00
2017-08-31T14:36:39.737Z,5.17
2017-08-31T14:39:09.124Z,4.80
2017-08-31T14:41:37.465Z,5.77
2017-08-31T14:44:05.936Z,5.27
2017-08-31T14:46:34.297Z,5.03
2017-08-31T14:49:02.605Z,5.43
2017-08-31T14:51:30.904Z,6.00
2017-08-31T14:53:59.244Z,5.50
2017-08-31T14:56:27.675Z,5.57
2017-08-31T14:58:56.074Z,5.83
2017-08-31T15:01:24.435Z,3.70
2017-08-31T15:03:52.773Z,3.27
2017-08-31T15:06:21.108Z,2.70
2017-08-31T15:08:49.708Z,2.67
2017-08-31T15:11:18.115Z,2.70
2017-08-31T15:13:46.408Z,3.00
2017-08-31T15:16:14.797Z,2.70
2017-08-31T15:18:44.031Z,2.57
2017-08-31T15:21:13.325Z,2.30
2017-08-31T15:23:41.687Z,2.90
2017-08-31T15:26:10.139Z,3.43
2017-08-31T15:28:38.422Z,3.83
2017-08-31T15:31:06.798Z,3.53
2017-08-31T15:33:35.398Z,3.63
2017-08-31T15:36:03.999Z,3.13
2017-08-31T15:38:32.304Z,3.07
2017-08-31T15:41:00.608Z,3.03
2017-08-31T15:43:29.277Z,3.80
2017-08-31T15:45:57.574Z,3.30
2017-08-31T15:48:26.137Z,3.97
2017-08-31T15:50:54.762Z,3.30
2017-08-31T15:53:23.179Z,5.17
2017-08-31T15:55:51.494Z,5.20
2017-08-31T15:58:19.992Z,5.10
2017-08-31T16:00:48.617Z,4.50
2017-08-31T16:03:16.941Z,4.80
2017-08-31T16:05:45.535Z,4.80
2017-08-31T16:08:14.114Z,4.60
2017-08-31T16:10:42.432Z,4.10
2017-08-31T16:13:10.898Z,4.20
2017-08-31T16:15:39.237Z,4.10
2017-08-31T16:18:07.551Z,4.83
2017-08-31T16:20:35.945Z,4.90
2017-08-31T16:23:04.430Z,4.23
2017-08-31T16:25:33.613Z,3.67
2017-08-31T16:28:01.925Z,4.20
2017-08-31T16:30:30.289Z,3.80
2017-08-31T16:32:58.602Z,5.83
2017-08-31T16:35:27.445Z,4.00
2017-08-31T16:37:56.151Z,8.47
2017-08-31T16:40:24.472Z,8.83
2017-08-31T16:42:52.772Z,5.03
2017-08-31T16:45:21.133Z,4.47
2017-08-31T16:47:49.587Z,4.37
2017-08-31T16:50:17.947Z,5.10
2017-08-31T16:52:46.345Z,5.23
2017-08-31T16:55:14.958Z,5.03
2017-08-31T16:57:43.319Z,4.93
2017-08-31T17:00:12.094Z,3.57
2017-08-31T17:02:40.609Z,4.03
2017-08-31T17:05:09.375Z,4.70
2017-08-31T17:07:37.685Z,6.60
2017-08-31T17:10:06.062Z,4.30
2017-08-31T17:12:34.349Z,5.17
2017-08-31T17:15:02.747Z,6.80
2017-08-31T17:17:31.096Z,5.77
2017-08-31T17:19:59.719Z,6.70
2017-08-31T17:22:28.199Z,5.53
2017-08-31T17:24:56.835Z,5.50
2017-08-31T17:27:25.256Z,6.57
2017-08-31T17:29:53.568Z,7.17
2017-08-31T17:32:21.889Z,6.87
2017-08-31T17:34:50.456Z,6.80
2017-08-31T17:37:18.811Z,6.37
2017-08-31T17:39:47.499Z,6.30
2017-08-31T17:42:16.046Z,7.13
2017-08-31T17:44:44.641Z,7.53
2017-08-31T17:47:13.285Z,5.73
2017-08-31T17:49:41.708Z,6.00
2017-08-31T17:52:10.055Z,5.70
2017-08-31T17:54:38.400Z,6.43
2017-08-31T17:57:06.725Z,6.30
2017-08-31T17:59:35.487Z,6.13
2017-08-31T18:02:03.772Z,6.63
2017-08-31T18:04:32.188Z,5.73
2017-08-31T18:07:00.500Z,6.63
2017-08-31T18:09:28.813Z,7.30
2017-08-31T18:11:57.151Z,7.47
2017-08-31T18:14:27.200Z,8.43
2017-08-31T18:16:55.755Z,7.60
2017-08-31T18:19:24.084Z,7.40
2017-08-31T18:21:52.451Z,7.03
2017-08-31T18:24:21.052Z,9.30
2017-08-31T18:26:49.575Z,8.10
2017-08-31T18:29:17.955Z,8.63
2017-08-31T18:31:46.273Z,10.10
2017-08-31T18:34:14.885Z,10.83
2017-08-31T18:36:43.229Z,8.97
2017-08-31T18:39:11.542Z,10.50
2017-08-31T18:41:39.977Z,10.40
2017-08-31T18:44:08.281Z,9.13
2017-08-31T18:46:36.623Z,10.10
2017-08-31T18:49:04.980Z,9.63
2017-08-31T18:51:33.289Z,9.33
2017-08-31T18:54:01.668Z,10.17
2017-08-31T18:56:30.024Z,11.57
2017-08-31T18:58:58.365Z,9.97
2017-08-31T19:01:26.959Z,10.47
2017-08-31T19:03:55.307Z,11.00
2017-08-31T19:06:23.657Z,10.43
2017-08-31T19:08:51.974Z,12.20
2017-08-31T19:11:20.286Z,11.30
2017-08-31T19:13:49.777Z,11.13
2017-08-31T19:16:18.087Z,11.53
2017-08-31T19:18:46.715Z,10.60
2017-08-31T19:21:15.439Z,12.40
2017-08-31T19:23:43.792Z,13.80
2017-08-31T19:26:12.120Z,11.60
2017-08-31T19:28:40.456Z,13.10
2017-08-31T19:31:08.889Z,13.43
2017-08-31T19:33:37.344Z,13.10
2017-08-31T19:36:05.841Z,14.37
2017-08-31T19:38:34.417Z,12.07
2017-08-31T19:41:02.794Z,12.13
2017-08-31T19:43:31.360Z,13.47
2017-08-31T19:45:59.680Z,12.83
2017-08-31T19:48:27.999Z,14.53
2017-08-31T19:50:56.364Z,14.87
2017-08-31T19:53:25.161Z,14.30
2017-08-31T19:55:53.621Z,14.70
2017-08-31T19:58:22.032Z,15.73
2017-08-31T20:00:50.342Z,13.67
2017-08-31T20:03:18.685Z,16.83
2017-08-31T20:05:47.015Z,16.83
2017-08-31T20:08:15.956Z,17.20
2017-08-31T20:10:44.519Z,15.43
2017-08-31T20:13:12.857Z,15.40
2017-08-31T20:15:41.224Z,16.80
2017-08-31T20:18:09.535Z,18.50
2017-08-31T20:20:37.901Z,19.20
2017-08-31T20:23:06.335Z,19.27
2017-08-31T20:25:34.854Z,19.67
2017-08-31T20:28:03.181Z,20.17
2017-08-31T20:30:31.546Z,19.80
2017-08-31T20:33:00.306Z,20.00
2017-08-31T20:35:28.646Z,17.40
2017-08-31T20:37:57.422Z,22.17
2017-08-31T20:40:31.620Z,22.87
2017-08-31T20:42:59.945Z,21.53
2017-08-31T20:45:28.299Z,23.97
2017-08-31T20:47:56.716Z,23.00
2017-08-31T20:50:25.049Z,22.40
2017-08-31T20:52:53.473Z,22.33
2017-08-31T20:55:21.810Z,22.97
2017-08-31T20:57:50.396Z,25.23
2017-08-31T21:00:18.821Z,21.03
2017-08-31T21:02:47.346Z,23.73
2017-08-31T21:05:17.001Z,23.90
2017-08-31T21:07:51.194Z,25.43
2017-08-31T21:10:19.891Z,27.03
2017-08-31T21:12:48.307Z,24.27
2017-08-31T21:15:16.789Z,23.47
2017-08-31T21:17:45.386Z,24.13
2017-08-31T21:20:14.090Z,21.90
2017-08-31T21:22:43.225Z,22.23
2017-08-31T21:25:15.877Z,20.53
2017-08-31T21:27:46.196Z,22.60
2017-08-31T21:30:14.830Z,23.40
2017-08-31T21:32:43.137Z,20.90
2017-08-31T21:35:11.516Z,23.10
2017-08-31T21:37:39.829Z,23.93
2017-08-31T21:40:08.197Z,23.00
2017-08-31T21:42:37.028Z,25.17
2017-08-31T21:47:40.117Z,24.87
2017-08-31T21:50:08.687Z,21.80
2017-08-31T21:52:37.144Z,25.73
2017-08-31T21:55:05.467Z,24.90
2017-08-31T21:57:33.832Z,22.30
2017-08-31T22:00:02.186Z,25.00
2017-08-31T22:02:30.489Z,23.27
2017-08-31T22:04:59.728Z,24.93
2017-08-31T22:07:28.060Z,24.57
2017-08-31T22:09:57.137Z,23.20
2017-08-31T22:12:25.706Z,24.20
2017-08-31T22:14:54.000Z,26.00
2017-08-31T22:17:22.668Z,25.50
2017-08-31T22:19:51.037Z,22.53
2017-08-31T22:22:19.777Z,24.23
2017-08-31T22:24:48.128Z,23.53
2017-08-31T22:27:16.579Z,25.57
2017-08-31T22:29:45.060Z,26.30
2017-08-31T22:32:13.428Z,26.63
2017-08-31T22:34:42.032Z,24.47
2017-08-31T22:37:10.400Z,23.40
2017-08-31T22:39:38.710Z,24.87
2017-08-31T22:42:07.192Z,17.67
2017-08-31T22:44:35.538Z,17.37
2017-08-31T22:47:03.859Z,17.60
2017-08-31T22:49:32.696Z,14.50
2017-08-31T22:52:01.036Z,14.00
2017-08-31T22:54:29.396Z,14.70
2017-08-31T22:56:57.727Z,15.20
2017-08-31T22:59:26.038Z,15.37
2017-08-31T23:01:54.440Z,13.57
2017-08-31T23:04:22.764Z,16.37
2017-08-31T23:06:52.110Z,16.87
2017-08-31T23:09:26.355Z,17.90
2017-08-31T23:11:56.096Z,18.43
2017-08-31T23:14:24.602Z,18.47
2017-08-31T23:16:52.936Z,19.50
2017-08-31T23:19:21.316Z,20.37
2017-08-31T23:21:50.216Z,20.20
2017-08-31T23:24:18.769Z,21.83
2017-08-31T23:26:47.225Z,17.83
2017-08-31T23:29:15.788Z,21.67
2017-08-31T23:31:44.134Z,21.67
2017-08-31T23:34:12.790Z,22.43
2017-08-31T23:36:41.216Z,21.50
2017-08-31T23:39:09.806Z,19.30
2017-08-31T23:41:38.153Z,19.27
2017-08-31T23:44:06.530Z,17.37
2017-08-31T23:46:34.845Z,17.43
2017-08-31T23:49:03.419Z,15.50
2017-08-31T23:51:31.973Z,17.33
2017-08-31T23:54:01.209Z,17.87
2017-08-31T23:56:29.615Z,20.30
2017-08-31T23:58:58.501Z,17.67
